Time;durP1;ratioP1;P1;durP2;ratioP2;P2;SDS_P1;SDS_P2;PMS_P1;PMS_P2;Temp;Humidity;BMP_temperature;BMP_pressure;BME280_temperature;BME280_humidity;BME280_pressure;Samples;Min_cycle;Max_cycle;Signal;HPM_P1;HPM_P2
2022/10/05 00:00:59;;;;;;;38.67;22.05;;;;;;;16.79;100.00;95418.91;5059550;28;20128;-89
2022/10/05 00:03:27;;;;;;;33.97;19.75;;;;;;;16.82;100.00;95407.75;5077562;28;20036;-89
2022/10/05 00:05:52;;;;;;;29.10;18.85;;;;;;;16.76;100.00;95408.91;5076331;28;20024;-89
2022/10/05 00:08:21;;;;;;;36.67;18.52;;;;;;;16.54;100.00;95399.56;5075999;28;20471;-90
2022/10/05 00:10:47;;;;;;;41.20;21.77;;;;;;;16.09;100.00;95395.22;5075938;28;20459;-90
2022/10/05 00:13:17;;;;;;;47.53;22.52;;;;;;;16.19;100.00;95390.91;5075722;28;20099;-89
2022/10/05 00:15:42;;;;;;;34.25;21.40;;;;;;;16.39;100.00;95395.22;5077050;28;20032;-89
2022/10/05 00:18:20;;;;;;;37.60;20.42;;;;;;;16.57;100.00;95392.94;5075926;28;20032;-90
2022/10/05 00:20:47;;;;;;;39.13;21.08;;;;;;;16.34;100.00;95392.63;5058911;28;20441;-89
2022/10/05 00:23:22;;;;;;;37.40;21.48;;;;;;;16.50;100.00;95394.06;5075860;28;20131;-89
2022/10/05 00:25:50;;;;;;;30.75;20.77;;;;;;;16.44;100.00;95392.53;5076424;28;20043;-90
2022/10/05 00:28:26;;;;;;;40.15;22.15;;;;;;;16.32;100.00;95403.50;5058988;28;20429;-90
2022/10/05 00:30:57;;;;;;;31.98;20.55;;;;;;;16.42;100.00;95404.44;5075491;28;20024;-90
2022/10/05 00:33:24;;;;;;;35.72;20.85;;;;;;;16.44;100.00;95403.09;5075468;28;20063;-90
2022/10/05 00:35:49;;;;;;;33.97;21.23;;;;;;;16.41;100.00;95393.09;5075998;28;20356;-89
2022/10/05 00:38:15;;;;;;;48.03;24.85;;;;;;;16.21;100.00;95388.78;5076017;28;20032;-89
2022/10/05 00:41:19;;;;;;;45.95;23.83;;;;;;;16.33;100.00;95394.50;5058825;28;20040;-90
2022/10/05 00:43:56;;;;;;;43.38;25.05;;;;;;;16.23;100.00;95391.94;5074130;28;20036;-89
2022/10/05 00:46:47;;;;;;;44.13;25.25;;;;;;;16.42;100.00;95393.88;5076771;28;20032;-89
2022/10/05 00:49:26;;;;;;;48.35;27.55;;;;;;;16.49;100.00;95397.00;5076443;28;20024;-89
2022/10/05 00:52:36;;;;;;;54.50;28.30;;;;;;;16.63;100.00;95394.47;5075462;28;20021;-89
2022/10/05 00:55:24;;;;;;;40.95;25.33;;;;;;;16.65;100.00;95395.00;5076409;28;20108;-90
2022/10/05 00:58:10;;;;;;;52.95;28.35;;;;;;;16.64;100.00;95398.69;5075157;28;20031;-90
2022/10/05 01:00:59;;;;;;;39.67;24.88;;;;;;;16.52;100.00;95399.06;5076307;28;20025;-89
2022/10/05 01:03:48;;;;;;;44.97;25.20;;;;;;;16.42;100.00;95392.03;5077429;28;20051;-90
2022/10/05 01:06:50;;;;;;;41.78;23.25;;;;;;;16.49;100.00;95392.47;5062922;28;20039;-89
2022/10/05 01:09:39;;;;;;;45.92;24.58;;;;;;;16.17;100.00;95391.19;5080200;28;20426;-90
2022/10/05 01:12:33;;;;;;;41.50;23.73;;;;;;;16.16;100.00;95392.25;5080571;28;20338;-90
2022/10/05 01:15:12;;;;;;;40.20;24.05;;;;;;;16.17;100.00;95387.75;5096283;28;20060;-89
2022/10/05 01:17:48;;;;;;;39.00;22.67;;;;;;;16.27;100.00;95386.88;5083124;28;20028;-89
2022/10/05 01:20:28;;;;;;;38.67;24.27;;;;;;;16.16;100.00;95389.59;5099593;28;20059;-89
2022/10/05 01:23:16;;;;;;;37.63;23.23;;;;;;;16.25;100.00;95385.31;5099443;28;20031;-89
2022/10/05 01:25:42;;;;;;;40.40;23.52;;;;;;;15.90;100.00;95383.75;5091716;28;20078;-89
2022/10/05 01:28:25;;;;;;;36.17;20.88;;;;;;;16.26;100.00;95386.06;5093414;28;20067;-89
2022/10/05 01:30:59;;;;;;;37.22;19.85;;;;;;;16.03;100.00;95390.25;5063520;28;20400;-89
2022/10/05 01:33:36;;;;;;;35.20;20.20;;;;;;;16.00;100.00;95380.22;5079856;28;20377;-89
2022/10/05 01:36:12;;;;;;;22.48;13.88;;;;;;;16.18;100.00;95384.81;5080062;28;20041;-90
2022/10/05 01:38:55;;;;;;;34.85;17.15;;;;;;;16.03;100.00;95383.09;5079030;28;20027;-89
2022/10/05 01:41:24;;;;;;;19.65;11.95;;;;;;;16.31;100.00;95379.97;5078639;28;20067;-89
2022/10/05 01:44:07;;;;;;;15.57;10.10;;;;;;;16.30;100.00;95379.19;5079972;28;20062;-90
2022/10/05 01:46:38;;;;;;;23.73;9.90;;;;;;;16.33;100.00;95375.19;5078969;28;20033;-89
2022/10/05 01:49:32;;;;;;;24.98;9.30;;;;;;;16.53;100.00;95376.84;5062165;28;20058;-90
2022/10/05 01:52:03;;;;;;;16.00;10.23;;;;;;;16.41;100.00;95371.94;5079715;28;20032;-88
2022/10/05 01:55:02;;;;;;;17.35;9.50;;;;;;;16.29;100.00;95372.31;5078414;28;20150;-89
2022/10/05 01:57:40;;;;;;;11.25;7.70;;;;;;;16.15;100.00;95364.22;5078468;28;20032;-89
2022/10/05 02:00:09;;;;;;;15.88;7.68;;;;;;;16.18;100.00;95368.97;5079325;28;20028;-88
2022/10/05 02:02:38;;;;;;;11.48;6.20;;;;;;;16.34;100.00;95371.47;5078037;28;20337;-89
2022/10/05 02:05:12;;;;;;;12.90;6.65;;;;;;;16.41;100.00;95379.88;5061890;28;20383;-88
2022/10/05 02:07:43;;;;;;;16.05;8.10;;;;;;;16.37;100.00;95376.22;5061853;28;20024;-89
2022/10/05 02:10:37;;;;;;;14.25;7.68;;;;;;;16.39;100.00;95366.91;5061459;28;20028;-89
2022/10/05 02:13:11;;;;;;;12.98;7.80;;;;;;;16.23;100.00;95374.22;5077834;28;20471;-88
2022/10/05 02:15:59;;;;;;;13.75;8.00;;;;;;;15.89;100.00;95367.06;5078116;28;20085;-89
2022/10/05 02:18:29;;;;;;;17.77;9.40;;;;;;;15.92;100.00;95366.56;5078303;28;20487;-89
2022/10/05 02:20:56;;;;;;;17.60;8.32;;;;;;;15.93;100.00;95373.41;5061774;28;20089;-89
2022/10/05 02:23:25;;;;;;;17.23;8.93;;;;;;;15.89;100.00;95363.63;5061587;28;20028;-89
2022/10/05 02:25:52;;;;;;;13.13;8.30;;;;;;;15.96;100.00;95367.56;5078510;28;20448;-88
2022/10/05 02:28:29;;;;;;;16.88;8.43;;;;;;;15.96;100.00;95372.06;5078236;28;20032;-88
2022/10/05 02:31:04;;;;;;;17.88;7.72;;;;;;;15.98;100.00;95372.56;5077862;28;20071;-89
2022/10/05 02:33:31;;;;;;;15.20;7.85;;;;;;;15.94;100.00;95380.28;5078200;28;20162;-89
2022/10/05 02:36:33;;;;;;;16.63;8.30;;;;;;;15.99;100.00;95373.34;5077740;28;20024;-89
2022/10/05 02:39:04;;;;;;;12.80;7.32;;;;;;;15.84;100.00;95375.03;5000870;28;20040;-89
2022/10/05 02:41:33;;;;;;;15.65;7.88;;;;;;;15.67;100.00;95370.91;5064172;28;20048;-88
2022/10/05 02:44:35;;;;;;;17.83;8.55;;;;;;;15.65;100.00;95375.69;5078555;28;20047;-89
2022/10/05 02:47:41;;;;;;;15.77;6.72;;;;;;;15.87;100.00;95385.03;5077651;28;20027;-88
2022/10/05 02:50:21;;;;;;;18.70;6.55;;;;;;;15.82;100.00;95387.72;5016785;28;20034;-88
2022/10/05 02:52:53;;;;;;;12.40;5.55;;;;;;;16.01;100.00;95382.59;5073399;28;20048;-88
2022/10/05 02:55:57;;;;;;;11.70;5.57;;;;;;;15.69;100.00;95389.13;5078684;28;20124;-89
2022/10/05 02:58:27;;;;;;;10.75;5.90;;;;;;;15.63;100.00;95385.72;5086143;28;20062;-89
2022/10/05 03:00:58;;;;;;;11.52;5.78;;;;;;;15.66;100.00;95389.66;5061079;28;20020;-89
2022/10/05 03:03:32;;;;;;;9.95;5.10;;;;;;;15.87;100.00;95385.03;5077291;28;20040;-88
2022/10/05 03:06:14;;;;;;;14.13;5.95;;;;;;;15.90;100.00;95384.50;5078641;28;20029;-89
2022/10/05 03:08:45;;;;;;;13.98;6.05;;;;;;;15.37;100.00;95380.59;5060743;28;20028;-89
2022/10/05 03:11:43;;;;;;;8.70;5.43;;;;;;;15.15;100.00;95377.53;5077368;28;20032;-88
2022/10/05 03:14:18;;;;;;;14.55;6.57;;;;;;;15.27;100.00;95372.72;5089907;28;20124;-88
2022/10/05 03:17:15;;;;;;;12.43;6.15;;;;;;;15.52;100.00;95363.88;5087421;28;20381;-88
2022/10/05 03:19:40;;;;;;;10.13;5.28;;;;;;;15.47;100.00;95373.66;5082668;28;20071;-89
2022/10/05 03:22:18;;;;;;;11.40;6.95;;;;;;;15.30;100.00;95363.50;5092434;28;20067;-88
2022/10/05 03:24:59;;;;;;;10.77;6.38;;;;;;;15.55;100.00;95378.38;5097134;28;20039;-89
2022/10/05 03:27:46;;;;;;;13.77;6.25;;;;;;;15.61;100.00;95373.88;5096776;28;20440;-88
2022/10/05 03:30:22;;;;;;;8.20;5.78;;;;;;;15.65;100.00;95382.81;5097820;28;20028;-89
2022/10/05 03:32:50;;;;;;;13.68;7.10;;;;;;;15.36;100.00;95379.03;5079764;28;20042;-89
2022/10/05 03:35:40;;;;;;;12.82;6.65;;;;;;;15.69;100.00;95378.56;5097732;28;20038;-89
2022/10/05 03:38:17;;;;;;;11.43;6.55;;;;;;;15.63;100.00;95383.06;5097130;28;20028;-88
2022/10/05 03:41:03;;;;;;;10.88;6.70;;;;;;;15.59;100.00;95384.69;5096615;28;20031;-89
2022/10/05 03:43:53;;;;;;;12.20;6.80;;;;;;;15.36;100.00;95381.66;5098004;28;20058;-89
2022/10/05 03:46:53;;;;;;;;;;;;;;;;;;;;;
2022/10/05 03:49:18;;;;;;;14.60;6.63;;;;;;;15.06;100.00;95374.69;5096375;28;20429;-89
2022/10/05 03:52:14;;;;;;;12.25;6.75;;;;;;;15.20;100.00;95383.59;5097566;28;20111;-89
2022/10/05 03:54:55;;;;;;;12.57;6.70;;;;;;;15.31;100.00;95386.97;5097199;28;20105;-88
2022/10/05 03:57:27;;;;;;;12.13;6.72;;;;;;;15.33;100.00;95390.13;5096540;28;20024;-89
2022/10/05 04:00:02;;;;;;;14.90;7.40;;;;;;;15.36;100.00;95386.94;5096328;28;20024;-89
2022/10/05 04:02:31;;;;;;;18.67;6.78;;;;;;;15.41;100.00;95384.28;5097274;28;20084;-89
2022/10/05 04:05:09;;;;;;;26.25;9.10;;;;;;;15.39;100.00;95382.97;5096679;28;20032;-88
2022/10/05 04:07:42;;;;;;;15.55;8.25;;;;;;;15.37;100.00;95377.16;5097160;28;20031;-88
2022/10/05 04:10:17;;;;;;;17.88;9.32;;;;;;;15.36;100.00;95376.41;5096281;28;20334;-88
2022/10/05 04:12:47;;;;;;;26.63;13.13;;;;;;;15.33;100.00;95374.28;5096356;28;20023;-89
2022/10/05 04:15:28;;;;;;;27.40;16.83;;;;;;;15.07;100.00;95374.41;5096558;28;20056;-89
2022/10/05 04:17:58;;;;;;;32.88;16.63;;;;;;;15.12;100.00;95371.75;5079593;28;20356;-88
2022/10/05 04:20:29;;;;;;;22.55;14.65;;;;;;;15.16;100.00;95365.91;5079626;28;20047;-89
2022/10/05 04:22:58;;;;;;;29.35;16.02;;;;;;;15.17;100.00;95375.41;5096062;28;20028;-89
2022/10/05 04:25:26;;;;;;;28.00;15.27;;;;;;;15.43;100.00;95370.00;5096077;28;20028;-88
2022/10/05 04:28:16;;;;;;;26.05;16.02;;;;;;;15.43;100.00;95370.00;5096965;28;20028;-88
2022/10/05 04:30:44;;;;;;;29.15;16.58;;;;;;;15.26;100.00;95373.78;5079627;28;20416;-88
2022/10/05 04:33:11;;;;;;;33.95;18.73;;;;;;;15.08;100.00;95370.72;5079002;28;20020;-88
2022/10/05 04:36:17;;;;;;;36.63;19.83;;;;;;;15.23;100.00;95371.72;5097183;28;20035;-88
2022/10/05 04:38:44;;;;;;;39.30;21.98;;;;;;;15.14;100.00;95371.47;5095827;28;20020;-89
2022/10/05 04:41:39;;;;;;;41.03;21.02;;;;;;;15.34;100.00;95378.50;5078965;28;20093;-89
2022/10/05 04:44:20;;;;;;;42.33;23.08;;;;;;;15.09;100.00;95367.00;5094419;28;20044;-89
2022/10/05 04:47:16;;;;;;;44.72;25.15;;;;;;;15.20;100.00;95377.50;5096769;28;20118;-88
2022/10/05 04:49:59;;;;;;;41.22;23.13;;;;;;;15.26;100.00;95374.56;5091891;28;20043;-88
2022/10/05 04:52:27;;;;;;;35.25;21.00;;;;;;;15.43;100.00;95385.84;5096757;28;20055;-89
2022/10/05 04:55:12;;;;;;;33.72;20.05;;;;;;;15.33;100.00;95391.97;5096914;28;20035;-88
2022/10/05 04:57:57;;;;;;;28.90;18.20;;;;;;;15.38;100.00;95394.59;5096965;28;20468;-88
2022/10/05 05:00:44;;;;;;;36.20;21.13;;;;;;;15.16;100.00;95389.66;5095682;28;20086;-88
2022/10/05 05:03:23;;;;;;;37.22;21.52;;;;;;;15.26;100.00;95392.28;5095916;28;20523;-87
2022/10/05 05:05:55;;;;;;;40.67;22.42;;;;;;;15.08;100.00;95385.75;5096639;28;20035;-90
2022/10/05 05:08:29;;;;;;;24.50;12.90;;;;;;;15.24;100.00;95386.47;5095520;28;20059;-90
2022/10/05 05:11:09;;;;;;;18.02;8.18;;;;;;;15.50;100.00;95389.00;5096238;28;20032;-89
2022/10/05 05:14:17;;;;;;;15.30;7.72;;;;;;;15.49;100.00;95387.38;5077694;28;20114;-89
2022/10/05 05:16:43;;;;;;;12.45;5.65;;;;;;;15.51;100.00;95383.41;5065894;28;20086;-89
2022/10/05 05:19:12;;;;;;;11.20;4.97;;;;;;;15.62;100.00;95381.50;5075736;28;20384;-88
2022/10/05 05:21:48;;;;;;;11.07;5.65;;;;;;;15.65;100.00;95380.16;5088879;28;20032;-89
2022/10/05 05:24:16;;;;;;;8.55;5.35;;;;;;;15.60;100.00;95386.28;5095781;28;20024;-89
2022/10/05 05:26:49;;;;;;;9.60;5.30;;;;;;;15.74;100.00;95385.66;5095337;28;20020;-89
2022/10/05 05:29:34;;;;;;;6.50;3.97;;;;;;;15.76;100.00;95389.63;5095522;28;20028;-89
2022/10/05 05:32:12;;;;;;;7.38;3.70;;;;;;;15.58;100.00;95385.75;5096142;28;20042;-86
2022/10/05 05:35:07;;;;;;;7.85;3.42;;;;;;;15.73;100.00;95389.38;5095437;28;20024;-87
2022/10/05 05:37:54;;;;;;;14.63;3.38;;;;;;;15.92;100.00;95402.75;5092465;28;20048;-86
2022/10/05 05:40:48;;;;;;;5.72;3.40;;;;;;;15.73;100.00;95399.94;5095059;28;20442;-86
2022/10/05 05:43:33;;;;;;;6.78;3.60;;;;;;;15.86;100.00;95409.88;5095169;28;20028;-87
2022/10/05 05:46:02;;;;;;;5.90;3.55;;;;;;;15.80;100.00;95409.13;5095340;28;20079;-87
2022/10/05 05:48:32;;;;;;;11.65;5.07;;;;;;;15.97;100.00;95411.44;5095543;28;20123;-86
2022/10/05 05:51:12;;;;;;;12.02;5.35;;;;;;;16.12;100.00;95409.72;5081698;28;20515;-86
2022/10/05 05:53:47;;;;;;;10.60;5.60;;;;;;;15.93;100.00;95410.41;5081948;28;20055;-86
2022/10/05 05:56:15;;;;;;;13.40;6.15;;;;;;;15.92;100.00;95410.69;5082836;28;20056;-87
2022/10/05 05:58:54;;;;;;;12.07;6.18;;;;;;;15.94;100.00;95412.00;5078483;28;20044;-86
2022/10/05 06:01:22;;;;;;;6.68;4.68;;;;;;;15.78;100.00;95418.38;5088330;28;20028;-86
2022/10/05 06:03:55;;;;;;;8.68;4.03;;;;;;;15.82;100.00;95412.28;5099898;28;20121;-86
2022/10/05 06:06:24;;;;;;;7.57;4.13;;;;;;;16.02;100.00;95413.25;5099952;28;20386;-87
2022/10/05 06:08:54;;;;;;;13.52;4.63;;;;;;;16.23;100.00;95419.16;5098688;28;20451;-86
2022/10/05 06:11:37;;;;;;;7.00;4.35;;;;;;;16.09;100.00;95416.34;5098327;28;20136;-86
2022/10/05 06:14:09;;;;;;;8.15;4.97;;;;;;;16.22;100.00;95411.50;5099470;28;20028;-87
2022/10/05 06:16:38;;;;;;;9.77;4.60;;;;;;;16.31;100.00;95427.56;5081803;28;20028;-87
2022/10/05 06:19:23;;;;;;;8.63;4.18;;;;;;;16.67;100.00;95432.53;5098315;28;20032;-86
2022/10/05 06:22:21;;;;;;;6.40;4.05;;;;;;;16.82;100.00;95429.72;5097705;28;20357;-87
2022/10/05 06:25:10;;;;;;;7.15;4.47;;;;;;;16.90;100.00;95427.53;5098880;28;20118;-86
2022/10/05 06:27:57;;;;;;;7.00;4.10;;;;;;;16.84;100.00;95433.97;5099524;28;20042;-87
2022/10/05 06:30:23;;;;;;;8.95;4.63;;;;;;;16.94;100.00;95436.50;5099010;28;20093;-86
2022/10/05 06:32:55;;;;;;;7.00;4.25;;;;;;;17.03;100.00;95437.47;5098732;28;20460;-89
2022/10/05 06:36:11;;;;;;;6.90;4.35;;;;;;;17.32;100.00;95430.53;5098350;28;20031;-89
2022/10/05 06:39:21;;;;;;;7.55;4.18;;;;;;;17.59;100.00;95435.22;5060029;28;20036;-89
2022/10/05 06:42:34;;;;;;;5.95;3.83;;;;;;;16.96;100.00;95437.78;5059909;28;20070;-89
2022/10/05 06:45:08;;;;;;;8.77;4.30;;;;;;;17.30;100.00;95438.00;5097261;28;20058;-89
2022/10/05 06:47:48;;;;;;;7.90;4.00;;;;;;;17.67;100.00;95431.94;5097766;28;20028;-90
2022/10/05 06:50:23;;;;;;;7.10;4.38;;;;;;;17.78;100.00;95442.38;5080758;28;20459;-89
2022/10/05 06:53:03;;;;;;;8.00;3.75;;;;;;;17.73;100.00;95442.47;5081483;28;20444;-89
2022/10/05 06:55:47;;;;;;;7.80;4.18;;;;;;;17.98;100.00;95440.53;5097987;28;20028;-89
2022/10/05 06:58:19;;;;;;;9.60;4.28;;;;;;;18.02;100.00;95441.53;5097642;28;20027;-89
2022/10/05 07:00:54;;;;;;;9.00;4.15;;;;;;;18.20;100.00;95446.03;5097456;28;20027;-89
2022/10/05 07:03:29;;;;;;;5.93;3.60;;;;;;;18.34;100.00;95442.66;5097527;28;20020;-89
2022/10/05 07:06:16;;;;;;;8.77;4.10;;;;;;;18.36;100.00;95441.28;5097682;28;20460;-89
2022/10/05 07:09:13;;;;;;;5.85;4.03;;;;;;;18.42;100.00;95441.19;5098348;28;20030;-89
2022/10/05 07:12:14;;;;;;;8.65;4.68;;;;;;;18.22;100.00;95448.41;5097403;28;20089;-89
2022/10/05 07:14:51;;;;;;;7.63;5.13;;;;;;;18.60;100.00;95453.66;5059133;28;20488;-89
2022/10/05 07:17:50;;;;;;;8.88;4.65;;;;;;;18.65;100.00;95456.19;5092173;28;20042;-89
2022/10/05 07:20:28;;;;;;;11.38;5.30;;;;;;;18.64;100.00;95456.47;5097000;28;20036;-89
2022/10/05 07:23:01;;;;;;;10.60;5.70;;;;;;;18.59;100.00;95460.03;5097344;28;20058;-89
2022/10/05 07:25:46;;;;;;;8.27;4.88;;;;;;;18.20;100.00;95463.84;5097454;28;20097;-89
2022/10/05 07:28:36;;;;;;;11.35;5.30;;;;;;;18.21;100.00;95466.19;5096938;28;20124;-89
2022/10/05 07:31:04;;;;;;;12.65;6.13;;;;;;;18.19;100.00;95470.97;5097466;28;20034;-89
2022/10/05 07:33:36;;;;;;;8.77;5.13;;;;;;;18.69;100.00;95467.03;5096902;28;20120;-89
2022/10/05 07:39:20;;;;;;;11.90;7.65;;;;;;;18.30;100.00;95471.63;5097049;28;20394;-89
2022/10/05 07:42:03;;;;;;;10.57;7.25;;;;;;;18.75;100.00;95468.50;5096774;28;20126;-89
2022/10/05 07:44:59;;;;;;;15.27;6.80;;;;;;;19.03;100.00;95470.44;5096727;28;20075;-89
2022/10/05 07:47:38;;;;;;;11.38;6.45;;;;;;;18.86;100.00;95461.13;5071060;28;20042;-89
2022/10/05 07:50:22;;;;;;;7.45;5.43;;;;;;;18.93;100.00;95464.22;5096718;28;20031;-89
2022/10/05 07:52:57;;;;;;;9.80;5.43;;;;;;;18.74;100.00;95474.13;5079935;28;20028;-89
2022/10/05 07:55:33;;;;;;;10.65;5.90;;;;;;;19.02;100.00;95477.63;5096904;28;20424;-89
2022/10/05 07:58:18;;;;;;;16.27;6.10;;;;;;;19.48;100.00;95478.63;5079607;28;20032;-89
2022/10/05 08:00:50;;;;;;;8.82;6.20;;;;;;;19.07;100.00;95474.09;5079660;28;20440;-89
2022/10/05 08:03:20;;;;;;;8.88;6.35;;;;;;;19.42;100.00;95477.13;5096290;28;20039;-89
2022/10/05 08:05:46;;;;;;;11.00;6.28;;;;;;;19.30;100.00;95488.25;5096335;28;20036;-89
2022/10/05 08:08:52;;;;;;;12.50;6.65;;;;;;;19.57;100.00;95492.00;5096554;28;20486;-90
2022/10/05 08:11:33;;;;;;;11.63;6.65;;;;;;;19.52;100.00;95486.78;5096627;28;20415;-89
2022/10/05 08:14:15;;;;;;;11.15;6.85;;;;;;;19.82;100.00;95484.56;5095970;28;20028;-89
2022/10/05 08:16:42;;;;;;;16.95;7.82;;;;;;;19.82;100.00;95487.22;5079584;28;20024;-89
2022/10/05 08:19:18;;;;;;;14.40;7.90;;;;;;;19.77;100.00;95488.13;5096297;28;20101;-89
2022/10/05 08:21:48;;;;;;;10.70;7.25;;;;;;;20.05;100.00;95484.63;5096026;28;20085;-89
2022/10/05 08:24:29;;;;;;;18.80;8.13;;;;;;;19.91;100.00;95485.41;5096134;28;20034;-89
2022/10/05 08:27:00;;;;;;;10.75;6.68;;;;;;;20.18;100.00;95486.47;5095713;28;20038;-89
2022/10/05 08:29:34;;;;;;;17.27;7.00;;;;;;;20.40;100.00;95494.75;5096240;28;20027;-89
2022/10/05 08:32:05;;;;;;;14.00;7.38;;;;;;;20.07;100.00;95487.78;5079574;28;20201;-89
2022/10/05 08:34:44;;;;;;;15.40;7.82;;;;;;;20.06;100.00;95486.19;5095961;28;20039;-89
2022/10/05 08:37:21;;;;;;;15.95;8.50;;;;;;;19.87;100.00;95494.28;5097101;28;20047;-89
2022/10/05 08:40:17;;;;;;;16.90;8.27;;;;;;;20.65;100.00;95497.91;5096170;28;20035;-89
2022/10/05 08:43:01;;;;;;;17.25;8.77;;;;;;;20.60;100.00;95496.16;5096793;28;20032;-89
2022/10/05 08:45:57;;;;;;;15.38;8.70;;;;;;;20.81;100.00;95498.34;5096770;28;20043;-90
2022/10/05 08:48:49;;;;;;;17.67;10.25;;;;;;;20.65;100.00;95503.22;5096654;28;20133;-89
2022/10/05 08:51:36;;;;;;;18.63;10.40;;;;;;;20.86;100.00;95500.88;5095743;28;20042;-89
2022/10/05 08:54:04;;;;;;;16.77;10.77;;;;;;;21.11;100.00;95504.75;5096688;28;20433;-90
2022/10/05 08:57:02;;;;;;;21.52;12.10;;;;;;;20.92;100.00;95501.53;5095655;28;20032;-89
2022/10/05 09:00:10;;;;;;;23.33;13.75;;;;;;;21.38;100.00;95507.53;5074682;28;20131;-89
2022/10/05 09:02:50;;;;;;;34.47;18.23;;;;;;;21.14;100.00;95503.34;5021472;28;20036;-89
2022/10/05 09:05:53;;;;;;;30.35;17.85;;;;;;;21.46;100.00;95512.09;5054606;28;20043;-89
2022/10/05 09:08:46;;;;;;;27.40;15.30;;;;;;;21.72;100.00;95511.41;5085943;28;20063;-89
2022/10/05 09:11:34;;;;;;;35.78;20.33;;;;;;;21.80;100.00;95521.28;5097008;28;20024;-89
2022/10/05 09:14:18;;;;;;;36.35;22.05;;;;;;;21.49;100.00;95510.69;5095616;28;20036;-89
2022/10/05 09:16:47;;;;;;;33.90;19.75;;;;;;;21.50;100.00;95514.94;5096456;28;20024;-89
2022/10/05 09:19:31;;;;;;;34.83;19.90;;;;;;;21.55;100.00;95515.59;5095974;28;20482;-90
2022/10/05 09:22:14;;;;;;;32.33;17.83;;;;;;;21.67;100.00;95522.22;5096397;28;20435;-90
2022/10/05 09:25:09;;;;;;;23.27;15.17;;;;;;;22.10;100.00;95518.06;5097778;28;20036;-89
2022/10/05 09:27:36;;;;;;;33.20;16.02;;;;;;;22.04;100.00;95520.09;5082868;28;20109;-89
2022/10/05 09:30:21;;;;;;;35.47;17.05;;;;;;;21.87;100.00;95515.50;5099565;28;20115;-89
2022/10/05 09:33:15;;;;;;;32.78;16.38;;;;;;;21.71;100.00;95515.94;5082708;28;20016;-89
2022/10/05 09:35:53;;;;;;;21.33;12.50;;;;;;;22.27;100.00;95517.28;5099532;28;20060;-90
2022/10/05 09:38:54;;;;;;;21.75;11.73;;;;;;;22.11;100.00;95515.09;5099227;28;20123;-89
2022/10/05 09:41:33;;;;;;;16.00;10.13;;;;;;;22.42;100.00;95513.34;5098933;28;20089;-90
2022/10/05 09:44:23;;;;;;;21.25;11.93;;;;;;;22.17;100.00;95511.16;5099295;28;20043;-89
2022/10/05 09:47:03;;;;;;;21.45;11.02;;;;;;;22.27;100.00;95512.72;5099972;28;20081;-90
2022/10/05 09:49:47;;;;;;;21.13;10.88;;;;;;;22.26;100.00;95511.16;5082135;28;20024;-89
2022/10/05 09:52:50;;;;;;;16.38;8.93;;;;;;;22.59;100.00;95505.38;5098849;28;20035;-89
2022/10/05 09:55:34;;;;;;;16.52;9.45;;;;;;;22.52;100.00;95507.72;5088403;28;20025;-90
2022/10/05 09:58:37;;;;;;;21.75;10.27;;;;;;;23.10;100.00;95509.31;5078066;28;20338;-91
2022/10/05 10:01:33;;;;;;;18.05;9.52;;;;;;;22.58;100.00;95506.44;5079557;28;20111;-90
2022/10/05 10:04:21;;;;;;;14.63;8.85;;;;;;;22.90;100.00;95511.56;5078141;28;20123;-91
2022/10/05 10:07:12;;;;;;;15.73;8.18;;;;;;;23.10;99.30;95512.00;5079355;28;20024;-90
2022/10/05 10:10:09;;;;;;;18.67;8.95;;;;;;;22.65;100.00;95513.19;5079127;28;20095;-89
2022/10/05 10:12:59;;;;;;;15.18;8.45;;;;;;;22.26;100.00;95510.38;5079284;28;20047;-91
2022/10/05 10:15:33;;;;;;;14.27;9.10;;;;;;;22.59;100.00;95507.25;5078012;28;20050;-90
2022/10/05 10:18:35;;;;;;;16.88;8.38;;;;;;;22.31;100.00;95505.66;5078039;28;20103;-91
2022/10/05 10:21:27;;;;;;;18.55;8.68;;;;;;;22.66;100.00;95504.09;5078195;28;20131;-90
2022/10/05 10:24:15;;;;;;;24.77;8.57;;;;;;;22.77;100.00;95501.84;5097091;28;20444;-90
2022/10/05 10:26:49;;;;;;;18.02;9.23;;;;;;;22.97;100.00;95506.53;5081299;28;20025;-90
2022/10/05 10:29:17;;;;;;;13.55;7.47;;;;;;;23.20;100.00;95505.50;5099123;28;20059;-90
2022/10/05 10:32:05;;;;;;;19.58;8.80;;;;;;;23.63;100.00;95509.91;5099362;28;20028;-91
2022/10/05 10:34:48;;;;;;;12.35;7.68;;;;;;;24.10;98.65;95508.22;5080867;28;20449;-89
2022/10/05 10:37:27;;;;;;;;;;;;;;;23.88;98.01;95509.28;5099461;28;20452;-90
2022/10/05 10:40:33;;;;;;;16.63;8.32;;;;;;;23.58;100.00;95504.72;5098878;28;19912;-91
2022/10/05 10:43:08;;;;;;;17.95;8.60;;;;;;;23.61;100.00;95509.44;5099111;28;20428;-89
2022/10/05 10:45:59;;;;;;;11.80;7.60;;;;;;;24.01;97.11;95506.34;5097831;28;20067;-90
2022/10/05 10:48:27;;;;;;;20.02;9.77;;;;;;;23.20;100.00;95508.97;5098821;28;20028;-90
2022/10/05 10:51:10;;;;;;;23.55;9.90;;;;;;;23.30;100.00;95500.63;5099005;28;20043;-91
2022/10/05 10:54:27;;;;;;;18.77;9.00;;;;;;;23.69;100.00;95508.59;5097413;28;20020;-89
2022/10/05 10:57:08;;;;;;;12.80;7.22;;;;;;;24.38;100.00;95500.41;5080217;28;20365;-90
2022/10/05 10:59:54;;;;;;;16.58;8.65;;;;;;;24.00;94.55;95509.38;5097376;28;20443;-89
2022/10/05 11:02:35;;;;;;;14.93;7.70;;;;;;;23.79;98.29;95507.44;5097385;28;20344;-89
2022/10/05 11:05:04;;;;;;;21.42;10.57;;;;;;;22.86;99.69;95502.63;5098818;28;20085;-90
2022/10/05 11:08:00;;;;;;;11.45;7.40;;;;;;;24.06;99.77;95502.72;5097728;28;20034;-89
2022/10/05 11:10:38;;;;;;;16.63;8.00;;;;;;;24.29;97.36;95497.06;5097466;28;20066;-89
2022/10/05 11:13:09;;;;;;;15.60;8.85;;;;;;;23.95;97.51;95490.81;5098324;28;20027;-89
2022/10/05 11:15:49;;;;;;;14.13;9.07;;;;;;;23.84;98.60;95490.41;5098625;28;20422;-88
2022/10/05 11:18:30;;;;;;;16.15;7.78;;;;;;;24.01;99.28;95492.19;5097009;28;20057;-88
2022/10/05 11:21:14;;;;;;;13.73;7.65;;;;;;;23.79;98.06;95485.25;5096892;28;20471;-89
2022/10/05 11:24:17;;;;;;;18.00;8.98;;;;;;;23.08;100.00;95490.94;5097400;28;20042;-88
2022/10/05 11:27:13;;;;;;;16.02;8.07;;;;;;;23.58;100.00;95492.16;5097372;28;20034;-90
2022/10/05 11:29:54;;;;;;;12.05;6.90;;;;;;;23.81;92.92;95494.50;5097010;28;20060;-88
2022/10/05 11:32:51;;;;;;;16.05;9.35;;;;;;;23.00;99.64;95481.03;5098241;28;20046;-90
2022/10/05 11:35:25;;;;;;;12.45;7.88;;;;;;;23.79;96.87;95488.72;5097946;28;20034;-90
2022/10/05 11:38:12;;;;;;;13.38;6.68;;;;;;;24.81;90.71;95478.94;5096791;28;20032;-89
2022/10/05 11:40:51;;;;;;;14.23;6.90;;;;;;;24.65;89.22;95476.84;5097929;28;20043;-90
2022/10/05 11:43:20;;;;;;;12.95;7.35;;;;;;;24.14;96.35;95477.78;5096566;28;20421;-89
2022/10/05 11:46:00;;;;;;;13.25;7.00;;;;;;;24.87;92.46;95480.28;5097501;28;20032;-90
2022/10/05 11:48:44;;;;;;;13.57;6.80;;;;;;;23.66;95.33;95485.19;5096207;28;20403;-91
2022/10/05 11:51:18;;;;;;;13.05;7.20;;;;;;;23.08;100.00;95474.91;5096370;28;20058;-88
2022/10/05 11:53:51;;;;;;;13.07;7.63;;;;;;;22.53;100.00;95471.13;5097530;28;20027;-89
2022/10/05 11:56:28;;;;;;;11.50;7.70;;;;;;;22.65;100.00;95463.22;5096566;28;20028;-89
2022/10/05 11:59:06;;;;;;;14.82;7.00;;;;;;;23.16;100.00;95465.28;5096501;28;20031;-89
2022/10/05 12:02:12;;;;;;;13.27;7.15;;;;;;;22.59;100.00;95464.50;5080479;28;20039;-89
2022/10/05 12:05:01;;;;;;;14.65;7.03;;;;;;;23.07;100.00;95461.84;5086300;28;20044;-90
2022/10/05 12:08:03;;;;;;;12.13;6.35;;;;;;;23.24;100.00;95455.66;5096112;28;20148;-89
2022/10/05 12:10:41;;;;;;;16.88;8.07;;;;;;;23.15;98.13;95463.72;5097122;28;20043;-89
2022/10/05 12:13:19;;;;;;;17.23;7.28;;;;;;;22.93;100.00;95460.16;5097293;28;20020;-89
2022/10/05 12:16:05;;;;;;;14.45;7.13;;;;;;;23.19;100.00;95461.19;5096179;28;20028;-90
2022/10/05 12:18:31;;;;;;;18.23;7.30;;;;;;;22.91;100.00;95454.34;5096340;28;20062;-90
2022/10/05 12:21:06;;;;;;;17.27;6.70;;;;;;;23.37;100.00;95462.69;5095992;28;20437;-89
2022/10/05 12:23:56;;;;;;;11.43;7.35;;;;;;;23.51;99.84;95457.09;5095307;28;20429;-89
2022/10/05 12:26:34;;;;;;;12.85;6.90;;;;;;;23.56;100.00;95454.25;5077099;28;20024;-89